sensor_id;sensor_type;location;lat;lon;timestamp;temperature;humidity
816;DHT22;25928;51.062;13.752;2023-04-03T00:01:16;5.20;1.00
816;DHT22;25928;51.062;13.752;2023-04-03T00:03:42;5.10;1.00
816;DHT22;25928;51.062;13.752;2023-04-03T00:06:09;4.90;1.00
816;DHT22;25928;51.062;13.752;2023-04-03T00:08:37;5.00;1.00
816;DHT22;25928;51.062;13.752;2023-04-03T00:11:03;5.00;1.00
816;DHT22;25928;51.062;13.752;2023-04-03T00:13:30;5.00;1.00
816;DHT22;25928;51.062;13.752;2023-04-03T00:15:56;5.10;1.00
816;DHT22;25928;51.062;13.752;2023-04-03T00:18:22;5.10;1.00
816;DHT22;25928;51.062;13.752;2023-04-03T00:20:48;5.00;1.00
816;DHT22;25928;51.062;13.752;2023-04-03T00:23:14;5.00;1.00
816;DHT22;25928;51.062;13.752;2023-04-03T00:25:40;5.00;1.00
816;DHT22;25928;51.062;13.752;2023-04-03T00:28:06;4.90;1.00
816;DHT22;25928;51.062;13.752;2023-04-03T00:30:32;4.90;1.00
816;DHT22;25928;51.062;13.752;2023-04-03T00:32:57;4.90;1.00
816;DHT22;25928;51.062;13.752;2023-04-03T00:35:24;5.00;1.00
816;DHT22;25928;51.062;13.752;2023-04-03T00:37:53;5.00;1.00
816;DHT22;25928;51.062;13.752;2023-04-03T00:40:21;5.10;1.00
816;DHT22;25928;51.062;13.752;2023-04-03T00:42:50;5.00;1.00
816;DHT22;25928;51.062;13.752;2023-04-03T00:45:33;5.10;1.00
816;DHT22;25928;51.062;13.752;2023-04-03T00:48:00;5.10;1.00
816;DHT22;25928;51.062;13.752;2023-04-03T00:50:28;5.30;1.00
816;DHT22;25928;51.062;13.752;2023-04-03T00:52:55;5.20;1.00
816;DHT22;25928;51.062;13.752;2023-04-03T00:55:22;5.10;1.00
816;DHT22;25928;51.062;13.752;2023-04-03T00:57:48;5.00;1.00
816;DHT22;25928;51.062;13.752;2023-04-03T01:00:17;4.90;1.00
816;DHT22;25928;51.062;13.752;2023-04-03T01:02:43;4.90;1.00
816;DHT22;25928;51.062;13.752;2023-04-03T01:05:09;4.90;1.00
816;DHT22;25928;51.062;13.752;2023-04-03T01:07:35;4.90;1.00
816;DHT22;25928;51.062;13.752;2023-04-03T01:10:05;5.00;1.00
816;DHT22;25928;51.062;13.752;2023-04-03T01:12:35;5.00;1.00
816;DHT22;25928;51.062;13.752;2023-04-03T01:25:43;5.00;1.00
816;DHT22;25928;51.062;13.752;2023-04-03T01:28:11;5.00;1.00
816;DHT22;25928;51.062;13.752;2023-04-03T01:30:45;5.00;1.00
816;DHT22;25928;51.062;13.752;2023-04-03T01:33:13;5.00;1.00
816;DHT22;25928;51.062;13.752;2023-04-03T01:35:38;5.00;1.00
816;DHT22;25928;51.062;13.752;2023-04-03T01:38:04;5.10;1.00
816;DHT22;25928;51.062;13.752;2023-04-03T01:40:30;5.00;1.00
816;DHT22;25928;51.062;13.752;2023-04-03T01:42:55;4.90;1.00
816;DHT22;25928;51.062;13.752;2023-04-03T01:45:21;4.90;1.00
816;DHT22;25928;51.062;13.752;2023-04-03T01:47:47;5.00;1.00
816;DHT22;25928;51.062;13.752;2023-04-03T01:50:12;4.80;1.00
816;DHT22;25928;51.062;13.752;2023-04-03T01:52:38;4.60;1.00
816;DHT22;25928;51.062;13.752;2023-04-03T01:55:04;4.60;1.00
816;DHT22;25928;51.062;13.752;2023-04-03T01:57:29;4.70;1.00
816;DHT22;25928;51.062;13.752;2023-04-03T01:59:55;4.60;1.00
816;DHT22;25928;51.062;13.752;2023-04-03T02:02:21;4.50;1.00
816;DHT22;25928;51.062;13.752;2023-04-03T02:04:46;4.30;1.00
816;DHT22;25928;51.062;13.752;2023-04-03T02:07:12;4.20;1.00
816;DHT22;25928;51.062;13.752;2023-04-03T02:09:38;4.20;1.00
816;DHT22;25928;51.062;13.752;2023-04-03T02:12:03;4.30;1.00
816;DHT22;25928;51.062;13.752;2023-04-03T02:14:29;4.20;1.00
816;DHT22;25928;51.062;13.752;2023-04-03T02:16:55;4.20;1.00
816;DHT22;25928;51.062;13.752;2023-04-03T02:19:20;4.20;1.00
816;DHT22;25928;51.062;13.752;2023-04-03T02:21:46;4.20;1.00
816;DHT22;25928;51.062;13.752;2023-04-03T02:24:12;4.00;1.00
816;DHT22;25928;51.062;13.752;2023-04-03T02:26:37;4.00;1.00
816;DHT22;25928;51.062;13.752;2023-04-03T02:29:03;4.00;1.00
816;DHT22;25928;51.062;13.752;2023-04-03T02:31:28;4.10;1.00
816;DHT22;25928;51.062;13.752;2023-04-03T02:33:54;4.10;1.00
816;DHT22;25928;51.062;13.752;2023-04-03T02:36:20;4.00;1.00
816;DHT22;25928;51.062;13.752;2023-04-03T02:38:45;3.90;1.00
816;DHT22;25928;51.062;13.752;2023-04-03T02:41:12;3.80;1.00
816;DHT22;25928;51.062;13.752;2023-04-03T02:43:38;3.70;1.00
816;DHT22;25928;51.062;13.752;2023-04-03T02:46:04;3.60;1.00
816;DHT22;25928;51.062;13.752;2023-04-03T02:48:30;3.60;1.00
816;DHT22;25928;51.062;13.752;2023-04-03T02:50:56;3.60;1.00
816;DHT22;25928;51.062;13.752;2023-04-03T02:53:22;3.50;1.00
816;DHT22;25928;51.062;13.752;2023-04-03T02:55:48;3.40;1.00
816;DHT22;25928;51.062;13.752;2023-04-03T02:58:14;3.50;1.00
816;DHT22;25928;51.062;13.752;2023-04-03T03:00:39;3.50;1.00
816;DHT22;25928;51.062;13.752;2023-04-03T03:03:06;3.50;1.00
816;DHT22;25928;51.062;13.752;2023-04-03T03:05:32;3.40;1.00
816;DHT22;25928;51.062;13.752;2023-04-03T03:07:57;3.30;1.00
816;DHT22;25928;51.062;13.752;2023-04-03T03:10:23;3.20;1.00
816;DHT22;25928;51.062;13.752;2023-04-03T03:12:49;3.20;1.00
816;DHT22;25928;51.062;13.752;2023-04-03T03:15:15;3.10;1.00
816;DHT22;25928;51.062;13.752;2023-04-03T03:17:41;3.10;1.00
816;DHT22;25928;51.062;13.752;2023-04-03T03:20:07;3.10;1.00
816;DHT22;25928;51.062;13.752;2023-04-03T03:22:34;3.00;1.00
816;DHT22;25928;51.062;13.752;2023-04-03T03:25:00;2.90;1.00
816;DHT22;25928;51.062;13.752;2023-04-03T03:27:26;2.90;1.00
816;DHT22;25928;51.062;13.752;2023-04-03T03:29:52;2.90;1.00
816;DHT22;25928;51.062;13.752;2023-04-03T03:32:18;2.90;1.00
816;DHT22;25928;51.062;13.752;2023-04-03T03:34:43;2.90;1.00
816;DHT22;25928;51.062;13.752;2023-04-03T03:37:09;2.90;1.00
816;DHT22;25928;51.062;13.752;2023-04-03T03:39:35;2.80;1.00
816;DHT22;25928;51.062;13.752;2023-04-03T03:42:01;2.70;1.00
816;DHT22;25928;51.062;13.752;2023-04-03T03:44:26;2.60;1.00
816;DHT22;25928;51.062;13.752;2023-04-03T03:46:54;2.50;1.00
816;DHT22;25928;51.062;13.752;2023-04-03T03:49:20;2.40;1.00
816;DHT22;25928;51.062;13.752;2023-04-03T03:51:45;2.70;1.00
816;DHT22;25928;51.062;13.752;2023-04-03T03:54:11;2.30;1.00
816;DHT22;25928;51.062;13.752;2023-04-03T03:56:36;2.20;1.00
816;DHT22;25928;51.062;13.752;2023-04-03T03:59:02;2.20;1.00
816;DHT22;25928;51.062;13.752;2023-04-03T04:01:28;2.20;1.00
816;DHT22;25928;51.062;13.752;2023-04-03T04:03:54;2.20;1.00
816;DHT22;25928;51.062;13.752;2023-04-03T04:06:20;2.10;1.00
816;DHT22;25928;51.062;13.752;2023-04-03T04:08:46;2.00;1.00
816;DHT22;25928;51.062;13.752;2023-04-03T04:11:12;2.10;1.00
816;DHT22;25928;51.062;13.752;2023-04-03T04:13:38;2.10;1.00
816;DHT22;25928;51.062;13.752;2023-04-03T04:16:04;2.20;1.00
816;DHT22;25928;51.062;13.752;2023-04-03T04:18:30;2.20;1.00
816;DHT22;25928;51.062;13.752;2023-04-03T04:20:56;2.20;1.00
816;DHT22;25928;51.062;13.752;2023-04-03T04:23:21;2.10;1.00
816;DHT22;25928;51.062;13.752;2023-04-03T04:25:48;2.20;1.00
816;DHT22;25928;51.062;13.752;2023-04-03T04:28:15;2.20;1.00
816;DHT22;25928;51.062;13.752;2023-04-03T04:30:41;2.10;1.00
816;DHT22;25928;51.062;13.752;2023-04-03T04:33:06;2.10;1.00
816;DHT22;25928;51.062;13.752;2023-04-03T04:35:33;2.20;1.00
816;DHT22;25928;51.062;13.752;2023-04-03T04:37:58;2.20;1.00
816;DHT22;25928;51.062;13.752;2023-04-03T04:40:25;2.30;1.00
816;DHT22;25928;51.062;13.752;2023-04-03T04:42:51;2.20;1.00
816;DHT22;25928;51.062;13.752;2023-04-03T04:45:16;2.10;1.00
816;DHT22;25928;51.062;13.752;2023-04-03T04:47:42;2.10;1.00
816;DHT22;25928;51.062;13.752;2023-04-03T04:50:08;2.10;1.00
816;DHT22;25928;51.062;13.752;2023-04-03T04:52:34;2.20;1.00
816;DHT22;25928;51.062;13.752;2023-04-03T04:55:00;2.30;1.00
816;DHT22;25928;51.062;13.752;2023-04-03T04:57:25;2.30;1.00
816;DHT22;25928;51.062;13.752;2023-04-03T04:59:51;2.20;1.00
816;DHT22;25928;51.062;13.752;2023-04-03T05:02:17;2.20;1.00
816;DHT22;25928;51.062;13.752;2023-04-03T05:04:42;2.20;1.00
816;DHT22;25928;51.062;13.752;2023-04-03T05:07:08;2.20;1.00
816;DHT22;25928;51.062;13.752;2023-04-03T05:09:34;2.20;1.00
816;DHT22;25928;51.062;13.752;2023-04-03T05:11:59;2.20;1.00
816;DHT22;25928;51.062;13.752;2023-04-03T05:14:25;2.20;1.00
816;DHT22;25928;51.062;13.752;2023-04-03T05:16:51;2.10;1.00
816;DHT22;25928;51.062;13.752;2023-04-03T05:19:20;2.20;1.00
816;DHT22;25928;51.062;13.752;2023-04-03T05:21:46;2.30;1.00
816;DHT22;25928;51.062;13.752;2023-04-03T05:24:12;2.20;1.00
816;DHT22;25928;51.062;13.752;2023-04-03T05:26:37;2.30;1.00
816;DHT22;25928;51.062;13.752;2023-04-03T05:29:03;2.20;1.00
816;DHT22;25928;51.062;13.752;2023-04-03T05:31:29;2.30;1.00
816;DHT22;25928;51.062;13.752;2023-04-03T05:33:55;2.30;1.00
816;DHT22;25928;51.062;13.752;2023-04-03T05:36:21;2.40;1.00
816;DHT22;25928;51.062;13.752;2023-04-03T05:38:47;2.50;1.00
816;DHT22;25928;51.062;13.752;2023-04-03T05:41:14;2.60;1.00
816;DHT22;25928;51.062;13.752;2023-04-03T05:43:40;2.50;1.00
816;DHT22;25928;51.062;13.752;2023-04-03T05:46:14;2.40;1.00
816;DHT22;25928;51.062;13.752;2023-04-03T05:48:40;2.30;1.00
816;DHT22;25928;51.062;13.752;2023-04-03T05:51:08;2.40;1.00
816;DHT22;25928;51.062;13.752;2023-04-03T05:53:38;2.60;1.00
816;DHT22;25928;51.062;13.752;2023-04-03T05:56:04;2.70;1.00
816;DHT22;25928;51.062;13.752;2023-04-03T05:58:30;2.80;1.00
816;DHT22;25928;51.062;13.752;2023-04-03T06:00:55;2.90;1.00
816;DHT22;25928;51.062;13.752;2023-04-03T06:03:21;3.10;1.00
816;DHT22;25928;51.062;13.752;2023-04-03T06:05:47;3.20;1.00
816;DHT22;25928;51.062;13.752;2023-04-03T06:08:13;3.20;1.00
816;DHT22;25928;51.062;13.752;2023-04-03T06:10:40;3.00;1.00
816;DHT22;25928;51.062;13.752;2023-04-03T06:13:06;2.70;1.00
816;DHT22;25928;51.062;13.752;2023-04-03T06:15:32;2.80;1.00
816;DHT22;25928;51.062;13.752;2023-04-03T06:17:59;3.20;1.00
816;DHT22;25928;51.062;13.752;2023-04-03T06:20:24;3.40;1.00
816;DHT22;25928;51.062;13.752;2023-04-03T06:22:50;3.20;1.00
816;DHT22;25928;51.062;13.752;2023-04-03T06:25:16;3.00;1.00
816;DHT22;25928;51.062;13.752;2023-04-03T06:27:44;2.90;1.00
816;DHT22;25928;51.062;13.752;2023-04-03T06:30:10;3.00;1.00
816;DHT22;25928;51.062;13.752;2023-04-03T06:32:37;3.10;1.00
816;DHT22;25928;51.062;13.752;2023-04-03T06:35:03;3.10;1.00
816;DHT22;25928;51.062;13.752;2023-04-03T06:37:30;3.20;1.00
816;DHT22;25928;51.062;13.752;2023-04-03T06:39:55;3.30;1.00
816;DHT22;25928;51.062;13.752;2023-04-03T06:42:22;3.40;1.00
816;DHT22;25928;51.062;13.752;2023-04-03T06:44:48;3.40;1.00
816;DHT22;25928;51.062;13.752;2023-04-03T06:47:14;3.40;1.00
816;DHT22;25928;51.062;13.752;2023-04-03T06:49:40;3.50;1.00
816;DHT22;25928;51.062;13.752;2023-04-03T06:52:07;3.80;1.00
816;DHT22;25928;51.062;13.752;2023-04-03T06:54:33;3.90;1.00
816;DHT22;25928;51.062;13.752;2023-04-03T06:56:58;3.80;1.00
816;DHT22;25928;51.062;13.752;2023-04-03T06:59:25;3.70;1.00
816;DHT22;25928;51.062;13.752;2023-04-03T07:01:51;3.90;1.00
816;DHT22;25928;51.062;13.752;2023-04-03T07:04:17;3.80;1.00
816;DHT22;25928;51.062;13.752;2023-04-03T07:06:44;3.90;1.00
816;DHT22;25928;51.062;13.752;2023-04-03T07:09:10;3.70;1.00
816;DHT22;25928;51.062;13.752;2023-04-03T07:11:36;3.50;1.00
816;DHT22;25928;51.062;13.752;2023-04-03T07:14:02;3.50;1.00
816;DHT22;25928;51.062;13.752;2023-04-03T07:16:28;3.70;1.00
816;DHT22;25928;51.062;13.752;2023-04-03T07:18:56;4.00;1.00
816;DHT22;25928;51.062;13.752;2023-04-03T07:21:22;4.20;1.00
816;DHT22;25928;51.062;13.752;2023-04-03T07:23:48;4.50;1.00
816;DHT22;25928;51.062;13.752;2023-04-03T07:26:14;4.40;1.00
816;DHT22;25928;51.062;13.752;2023-04-03T07:28:40;4.20;1.00
816;DHT22;25928;51.062;13.752;2023-04-03T07:31:10;4.20;1.00
816;DHT22;25928;51.062;13.752;2023-04-03T07:33:37;4.20;1.00
816;DHT22;25928;51.062;13.752;2023-04-03T07:36:04;4.00;1.00
816;DHT22;25928;51.062;13.752;2023-04-03T07:38:33;4.10;1.00
816;DHT22;25928;51.062;13.752;2023-04-03T07:40:58;4.40;1.00
816;DHT22;25928;51.062;13.752;2023-04-03T07:43:24;4.60;1.00
816;DHT22;25928;51.062;13.752;2023-04-03T07:45:51;4.70;1.00
816;DHT22;25928;51.062;13.752;2023-04-03T07:48:24;4.60;1.00
816;DHT22;25928;51.062;13.752;2023-04-03T07:50:51;4.70;1.00
816;DHT22;25928;51.062;13.752;2023-04-03T07:53:17;4.60;1.00
816;DHT22;25928;51.062;13.752;2023-04-03T07:55:46;4.70;1.00
816;DHT22;25928;51.062;13.752;2023-04-03T07:58:14;4.60;1.00
816;DHT22;25928;51.062;13.752;2023-04-03T08:00:41;4.50;1.00
816;DHT22;25928;51.062;13.752;2023-04-03T08:03:07;4.50;1.00
816;DHT22;25928;51.062;13.752;2023-04-03T08:05:37;4.70;1.00
816;DHT22;25928;51.062;13.752;2023-04-03T08:08:03;4.80;1.00
816;DHT22;25928;51.062;13.752;2023-04-03T08:10:30;5.00;1.00
816;DHT22;25928;51.062;13.752;2023-04-03T08:12:56;5.20;1.00
816;DHT22;25928;51.062;13.752;2023-04-03T08:15:22;5.00;1.00
816;DHT22;25928;51.062;13.752;2023-04-03T08:17:48;5.00;1.00
816;DHT22;25928;51.062;13.752;2023-04-03T08:20:13;5.20;1.00
816;DHT22;25928;51.062;13.752;2023-04-03T08:22:39;5.30;1.00
816;DHT22;25928;51.062;13.752;2023-04-03T08:25:07;5.40;1.00
816;DHT22;25928;51.062;13.752;2023-04-03T08:27:33;5.70;1.00
816;DHT22;25928;51.062;13.752;2023-04-03T08:29:59;5.90;1.00
816;DHT22;25928;51.062;13.752;2023-04-03T08:32:25;6.20;1.00
816;DHT22;25928;51.062;13.752;2023-04-03T08:34:51;6.20;1.00
816;DHT22;25928;51.062;13.752;2023-04-03T08:37:16;6.10;1.00
816;DHT22;25928;51.062;13.752;2023-04-03T08:39:43;6.10;1.00
816;DHT22;25928;51.062;13.752;2023-04-03T08:42:19;5.90;1.00
816;DHT22;25928;51.062;13.752;2023-04-03T08:47:38;5.80;1.00
816;DHT22;25928;51.062;13.752;2023-04-03T08:50:11;5.60;1.00
816;DHT22;25928;51.062;13.752;2023-04-03T08:52:56;5.70;1.00
816;DHT22;25928;51.062;13.752;2023-04-03T08:58:05;6.00;1.00
816;DHT22;25928;51.062;13.752;2023-04-03T09:00:50;6.30;1.00
816;DHT22;25928;51.062;13.752;2023-04-03T09:03:18;6.50;1.00
816;DHT22;25928;51.062;13.752;2023-04-03T09:06:05;6.20;1.00
816;DHT22;25928;51.062;13.752;2023-04-03T09:09:11;6.00;1.00
816;DHT22;25928;51.062;13.752;2023-04-03T09:17:06;6.30;1.00
816;DHT22;25928;51.062;13.752;2023-04-03T09:20:03;6.40;1.00
816;DHT22;25928;51.062;13.752;2023-04-03T09:22:32;6.90;99.90
816;DHT22;25928;51.062;13.752;2023-04-03T09:25:17;7.90;99.90
816;DHT22;25928;51.062;13.752;2023-04-03T09:27:44;7.60;99.90
816;DHT22;25928;51.062;13.752;2023-04-03T09:30:21;7.80;99.90
816;DHT22;25928;51.062;13.752;2023-04-03T09:32:48;8.30;99.90
816;DHT22;25928;51.062;13.752;2023-04-03T09:35:26;8.10;99.90
816;DHT22;25928;51.062;13.752;2023-04-03T09:38:19;7.80;99.90
816;DHT22;25928;51.062;13.752;2023-04-03T09:40:48;7.40;99.90
816;DHT22;25928;51.062;13.752;2023-04-03T09:45:45;6.90;99.90
816;DHT22;25928;51.062;13.752;2023-04-03T09:50:56;6.50;99.90
816;DHT22;25928;51.062;13.752;2023-04-03T09:53:40;6.40;99.90
816;DHT22;25928;51.062;13.752;2023-04-03T09:56:23;6.70;99.90
816;DHT22;25928;51.062;13.752;2023-04-03T09:59:08;7.00;99.90
816;DHT22;25928;51.062;13.752;2023-04-03T10:01:42;7.00;99.90
816;DHT22;25928;51.062;13.752;2023-04-03T10:04:17;7.20;99.90
816;DHT22;25928;51.062;13.752;2023-04-03T10:06:52;7.20;99.90
816;DHT22;25928;51.062;13.752;2023-04-03T10:09:19;7.30;99.90
816;DHT22;25928;51.062;13.752;2023-04-03T10:14:31;7.10;99.90
816;DHT22;25928;51.062;13.752;2023-04-03T10:17:49;7.10;99.90
816;DHT22;25928;51.062;13.752;2023-04-03T10:20:07;7.20;99.90
816;DHT22;25928;51.062;13.752;2023-04-03T10:30:51;8.40;99.90
816;DHT22;25928;51.062;13.752;2023-04-03T10:33:36;8.30;99.90
816;DHT22;25928;51.062;13.752;2023-04-03T10:39:35;7.30;99.90
816;DHT22;25928;51.062;13.752;2023-04-03T10:47:38;8.40;99.90
816;DHT22;25928;51.062;13.752;2023-04-03T10:50:27;8.50;99.90
816;DHT22;25928;51.062;13.752;2023-04-03T10:58:58;7.80;99.90
816;DHT22;25928;51.062;13.752;2023-04-03T11:01:32;8.20;99.90
816;DHT22;25928;51.062;13.752;2023-04-03T11:04:00;8.60;99.90
816;DHT22;25928;51.062;13.752;2023-04-03T11:06:39;9.10;99.90
816;DHT22;25928;51.062;13.752;2023-04-03T11:09:19;9.30;99.90
816;DHT22;25928;51.062;13.752;2023-04-03T11:11:47;8.50;99.90
816;DHT22;25928;51.062;13.752;2023-04-03T11:14:34;8.40;99.90
816;DHT22;25928;51.062;13.752;2023-04-03T11:20:06;8.50;99.90
816;DHT22;25928;51.062;13.752;2023-04-03T11:22:38;8.40;99.90
816;DHT22;25928;51.062;13.752;2023-04-03T11:27:44;8.00;99.90
816;DHT22;25928;51.062;13.752;2023-04-03T11:35:55;8.10;99.90
816;DHT22;25928;51.062;13.752;2023-04-03T11:38:28;8.00;99.90
816;DHT22;25928;51.062;13.752;2023-04-03T11:40:57;8.00;99.90
816;DHT22;25928;51.062;13.752;2023-04-03T11:46:03;7.70;99.90
816;DHT22;25928;51.062;13.752;2023-04-03T11:53:40;8.50;99.90
816;DHT22;25928;51.062;13.752;2023-04-03T12:01:50;7.50;99.90
816;DHT22;25928;51.062;13.752;2023-04-03T12:04:18;7.70;99.90
816;DHT22;25928;51.062;13.752;2023-04-03T12:11:48;8.00;99.90
816;DHT22;25928;51.062;13.752;2023-04-03T12:14:15;8.00;99.90
816;DHT22;25928;51.062;13.752;2023-04-03T12:16:43;8.30;99.90
816;DHT22;25928;51.062;13.752;2023-04-03T12:24:28;8.90;99.90
816;DHT22;25928;51.062;13.752;2023-04-03T12:35:24;8.20;99.90
816;DHT22;25928;51.062;13.752;2023-04-03T12:38:16;8.10;99.90
816;DHT22;25928;51.062;13.752;2023-04-03T12:43:30;7.90;99.90
816;DHT22;25928;51.062;13.752;2023-04-03T12:46:02;7.90;99.90
816;DHT22;25928;51.062;13.752;2023-04-03T12:48:46;7.70;99.90
816;DHT22;25928;51.062;13.752;2023-04-03T12:53:47;7.50;99.90
816;DHT22;25928;51.062;13.752;2023-04-03T12:56:28;7.60;99.90
816;DHT22;25928;51.062;13.752;2023-04-03T13:01:41;8.10;99.90
816;DHT22;25928;51.062;13.752;2023-04-03T13:04:10;7.80;99.90
816;DHT22;25928;51.062;13.752;2023-04-03T13:06:42;7.80;99.90
816;DHT22;25928;51.062;13.752;2023-04-03T13:11:47;7.20;99.90
816;DHT22;25928;51.062;13.752;2023-04-03T13:14:22;7.50;99.90
816;DHT22;25928;51.062;13.752;2023-04-03T13:16:59;7.90;99.90
816;DHT22;25928;51.062;13.752;2023-04-03T13:19:27;8.20;99.90
816;DHT22;25928;51.062;13.752;2023-04-03T13:22:33;8.10;99.90
816;DHT22;25928;51.062;13.752;2023-04-03T13:25:06;8.30;99.90
816;DHT22;25928;51.062;13.752;2023-04-03T13:27:32;8.50;99.90
816;DHT22;25928;51.062;13.752;2023-04-03T13:30:00;8.50;99.90
816;DHT22;25928;51.062;13.752;2023-04-03T13:32:28;8.70;99.90
816;DHT22;25928;51.062;13.752;2023-04-03T13:34:55;8.80;99.90
816;DHT22;25928;51.062;13.752;2023-04-03T13:37:29;8.50;99.90
816;DHT22;25928;51.062;13.752;2023-04-03T13:40:12;8.40;99.90
816;DHT22;25928;51.062;13.752;2023-04-03T13:42:40;8.10;99.90
816;DHT22;25928;51.062;13.752;2023-04-03T13:45:24;8.00;99.90
816;DHT22;25928;51.062;13.752;2023-04-03T13:47:54;7.50;99.90
816;DHT22;25928;51.062;13.752;2023-04-03T13:50:31;7.30;99.90
816;DHT22;25928;51.062;13.752;2023-04-03T13:53:12;7.20;99.90
816;DHT22;25928;51.062;13.752;2023-04-03T13:55:55;7.40;99.90
816;DHT22;25928;51.062;13.752;2023-04-03T13:58:29;7.30;99.90
816;DHT22;25928;51.062;13.752;2023-04-03T14:03:33;7.30;99.90
816;DHT22;25928;51.062;13.752;2023-04-03T14:06:00;7.60;99.90
816;DHT22;25928;51.062;13.752;2023-04-03T14:08:26;8.00;99.90
816;DHT22;25928;51.062;13.752;2023-04-03T14:10:53;8.40;99.90
816;DHT22;25928;51.062;13.752;2023-04-03T14:13:19;8.80;99.90
816;DHT22;25928;51.062;13.752;2023-04-03T14:15:47;8.60;99.90
816;DHT22;25928;51.062;13.752;2023-04-03T14:18:16;7.90;99.90
816;DHT22;25928;51.062;13.752;2023-04-03T14:20:43;7.30;99.90
816;DHT22;25928;51.062;13.752;2023-04-03T14:23:09;7.10;99.90
816;DHT22;25928;51.062;13.752;2023-04-03T14:25:36;7.00;99.90
816;DHT22;25928;51.062;13.752;2023-04-03T14:28:17;7.10;99.90
816;DHT22;25928;51.062;13.752;2023-04-03T14:30:44;7.10;99.90
816;DHT22;25928;51.062;13.752;2023-04-03T14:33:15;6.90;99.90
816;DHT22;25928;51.062;13.752;2023-04-03T14:35:41;6.80;99.90
816;DHT22;25928;51.062;13.752;2023-04-03T14:38:27;6.90;99.90
816;DHT22;25928;51.062;13.752;2023-04-03T14:40:54;7.00;99.90
816;DHT22;25928;51.062;13.752;2023-04-03T14:43:20;7.00;99.90
816;DHT22;25928;51.062;13.752;2023-04-03T14:45:48;7.10;99.90
816;DHT22;25928;51.062;13.752;2023-04-03T14:48:22;7.20;99.90
816;DHT22;25928;51.062;13.752;2023-04-03T14:50:49;7.60;99.90
816;DHT22;25928;51.062;13.752;2023-04-03T14:53:15;8.30;99.90
816;DHT22;25928;51.062;13.752;2023-04-03T14:55:46;8.20;99.90
816;DHT22;25928;51.062;13.752;2023-04-03T14:58:14;8.00;99.90
816;DHT22;25928;51.062;13.752;2023-04-03T15:00:41;7.80;99.90
816;DHT22;25928;51.062;13.752;2023-04-03T15:03:13;7.20;99.90
816;DHT22;25928;51.062;13.752;2023-04-03T15:05:39;7.10;99.90
816;DHT22;25928;51.062;13.752;2023-04-03T15:08:08;7.10;99.90
816;DHT22;25928;51.062;13.752;2023-04-03T15:10:38;7.30;99.90
816;DHT22;25928;51.062;13.752;2023-04-03T15:13:04;7.50;99.90
816;DHT22;25928;51.062;13.752;2023-04-03T15:15:30;7.50;99.90
816;DHT22;25928;51.062;13.752;2023-04-03T15:17:56;7.40;99.90
816;DHT22;25928;51.062;13.752;2023-04-03T15:20:27;7.40;99.90
816;DHT22;25928;51.062;13.752;2023-04-03T15:22:53;7.80;99.90
816;DHT22;25928;51.062;13.752;2023-04-03T15:25:21;8.20;99.90
816;DHT22;25928;51.062;13.752;2023-04-03T15:27:47;8.20;99.90
816;DHT22;25928;51.062;13.752;2023-04-03T15:30:18;7.80;99.90
816;DHT22;25928;51.062;13.752;2023-04-03T15:32:43;7.80;99.90
816;DHT22;25928;51.062;13.752;2023-04-03T15:35:10;7.50;99.90
816;DHT22;25928;51.062;13.752;2023-04-03T15:37:35;7.30;99.90
816;DHT22;25928;51.062;13.752;2023-04-03T15:40:03;7.00;99.90
816;DHT22;25928;51.062;13.752;2023-04-03T15:42:28;6.70;99.90
816;DHT22;25928;51.062;13.752;2023-04-03T15:44:54;6.80;99.90
816;DHT22;25928;51.062;13.752;2023-04-03T15:47:20;6.90;99.90
816;DHT22;25928;51.062;13.752;2023-04-03T15:49:45;7.20;99.90
816;DHT22;25928;51.062;13.752;2023-04-03T15:52:11;7.10;99.90
816;DHT22;25928;51.062;13.752;2023-04-03T15:54:37;7.20;99.90
816;DHT22;25928;51.062;13.752;2023-04-03T15:57:02;6.90;99.90
816;DHT22;25928;51.062;13.752;2023-04-03T15:59:28;6.80;99.90
816;DHT22;25928;51.062;13.752;2023-04-03T16:01:57;6.90;99.90
816;DHT22;25928;51.062;13.752;2023-04-03T16:04:24;6.90;99.90
816;DHT22;25928;51.062;13.752;2023-04-03T16:06:50;6.90;99.90
816;DHT22;25928;51.062;13.752;2023-04-03T16:09:16;6.80;99.90
816;DHT22;25928;51.062;13.752;2023-04-03T16:11:42;6.70;99.90
816;DHT22;25928;51.062;13.752;2023-04-03T16:14:09;6.70;99.90
816;DHT22;25928;51.062;13.752;2023-04-03T16:16:35;6.60;99.90
816;DHT22;25928;51.062;13.752;2023-04-03T16:19:00;6.60;99.90
816;DHT22;25928;51.062;13.752;2023-04-03T16:21:27;6.60;99.90
816;DHT22;25928;51.062;13.752;2023-04-03T16:23:53;6.50;99.90
816;DHT22;25928;51.062;13.752;2023-04-03T16:26:18;6.30;99.90
816;DHT22;25928;51.062;13.752;2023-04-03T16:28:45;6.20;99.90
816;DHT22;25928;51.062;13.752;2023-04-03T16:31:11;6.10;99.90
816;DHT22;25928;51.062;13.752;2023-04-03T16:33:37;6.30;99.90
816;DHT22;25928;51.062;13.752;2023-04-03T16:36:04;6.20;99.90
816;DHT22;25928;51.062;13.752;2023-04-03T16:38:30;6.20;99.90
816;DHT22;25928;51.062;13.752;2023-04-03T16:40:55;6.20;99.90
816;DHT22;25928;51.062;13.752;2023-04-03T16:43:27;6.10;99.90
816;DHT22;25928;51.062;13.752;2023-04-03T16:45:53;6.10;99.90
816;DHT22;25928;51.062;13.752;2023-04-03T16:48:19;6.10;99.90
816;DHT22;25928;51.062;13.752;2023-04-03T16:50:48;6.10;99.90
816;DHT22;25928;51.062;13.752;2023-04-03T16:53:16;6.00;99.90
816;DHT22;25928;51.062;13.752;2023-04-03T16:55:41;6.00;99.90
816;DHT22;25928;51.062;13.752;2023-04-03T16:58:07;6.00;99.90
816;DHT22;25928;51.062;13.752;2023-04-03T17:00:33;6.00;99.90
816;DHT22;25928;51.062;13.752;2023-04-03T17:02:59;5.90;99.90
816;DHT22;25928;51.062;13.752;2023-04-03T17:05:26;6.00;99.90
816;DHT22;25928;51.062;13.752;2023-04-03T17:07:51;6.00;99.90
816;DHT22;25928;51.062;13.752;2023-04-03T17:10:17;5.90;99.90
816;DHT22;25928;51.062;13.752;2023-04-03T17:12:43;6.00;99.90
816;DHT22;25928;51.062;13.752;2023-04-03T17:15:09;5.90;99.90
816;DHT22;25928;51.062;13.752;2023-04-03T17:17:35;5.90;99.90
816;DHT22;25928;51.062;13.752;2023-04-03T17:20:01;5.80;99.90
816;DHT22;25928;51.062;13.752;2023-04-03T17:22:28;5.60;99.90
816;DHT22;25928;51.062;13.752;2023-04-03T17:24:54;5.40;99.90
816;DHT22;25928;51.062;13.752;2023-04-03T17:27:20;5.30;99.90
816;DHT22;25928;51.062;13.752;2023-04-03T17:29:46;5.30;99.90
816;DHT22;25928;51.062;13.752;2023-04-03T17:32:12;5.20;99.90
816;DHT22;25928;51.062;13.752;2023-04-03T17:34:37;5.20;99.90
816;DHT22;25928;51.062;13.752;2023-04-03T17:37:04;5.20;99.90
816;DHT22;25928;51.062;13.752;2023-04-03T17:39:30;5.20;99.90
816;DHT22;25928;51.062;13.752;2023-04-03T17:41:55;5.20;99.90
816;DHT22;25928;51.062;13.752;2023-04-03T17:44:21;5.20;99.90
816;DHT22;25928;51.062;13.752;2023-04-03T17:46:47;5.10;99.90
816;DHT22;25928;51.062;13.752;2023-04-03T17:49:13;5.10;99.90
816;DHT22;25928;51.062;13.752;2023-04-03T17:51:40;5.10;99.90
816;DHT22;25928;51.062;13.752;2023-04-03T17:54:06;5.00;99.90
816;DHT22;25928;51.062;13.752;2023-04-03T17:56:32;5.10;99.90
816;DHT22;25928;51.062;13.752;2023-04-03T17:58:58;5.00;99.90
816;DHT22;25928;51.062;13.752;2023-04-03T18:01:27;5.00;99.90
816;DHT22;25928;51.062;13.752;2023-04-03T18:03:55;5.00;99.90
816;DHT22;25928;51.062;13.752;2023-04-03T18:06:28;4.90;99.90